Terminal Aerodrome Forecast
Issued by NWS

Home | Current Version | Previous Version | Text Only | Print | Product List | Glossary On
Versions: 1 2 3 4 5 6 7 8 9 10 11 12
000
FTUS44 KCRP 292329
TAFLRD
TAF
KLRD 292329Z 3000/3024 09005KT P6SM FEW250
     FM300100 12013KT P6SM FEW250
     FM301000 15007KT P6SM SCT020 BKN250
     FM301900 10008KT P6SM FEW050 SCT250=

USA.gov is the U.S. government's official web portal to all federal, state and local government web resources and services.